Weather observations for the past three days for
Southwest Oregon Regional Airport
Metric (Imperial)
Date Time (pdt) Wind (kph) Vis. (km) Weather Sky Cond. Temperature (ºC) Relative Humidity Wind Chill (°C) Heat Index (°C) Pressure Precipitation (cm)
Air Dwpt 6 hour altimeter (cm) sea level (mb) 1 hr 3 hr 6 hr
Max. Min.
02 15:07 NW 33 G 43 16.09 Fair and Breezy CLR 13 11 88% 76.05 0.0
02 12:56 N 26 G 44 16.09 Fair CLR 13 9 77% 76.17 0.0
02 11:56 N 28 G 39 16.09 Fair CLR 14 10 77% 76.2 0.0
02 10:56 N 20 16.09 Mostly Cloudy BKN017 13 9 77% 76.2 0.0
02 09:56 N 15 16.09 Overcast BKN015 OVC050 12 9 82% 76.25 0.0
02 08:56 N 13 16.09 Overcast OVC017 12 9 82% 76.28 0.0
02 07:56 N 17 16.09 Overcast OVC015 11 9 88% 76.28 0.0
02 06:56 N 20 16.09 Overcast OVC015 11 9 88% 76.48 0.0
02 02:15 N 19 16.09 Overcast OVC018 11 8 82% 76.38 0.0
02 01:21 N 22 16.09 Overcast OVC018 11 8 82% 76.4 0.0
02 00:18 N 20 16.09 Overcast OVC018 11 8 82% 76.43 0.0
01 23:25 NW 17 16.09 Overcast OVC020 11 9 88% 76.45 0.0
01 21:50 N 20 16.09 Overcast OVC020 12 8 77% 76.48 0.0
01 19:50 NW 19 16.09 Overcast OVC015 12 10 88% 76.43 0.0
01 17:50 NW 24 16.09 Overcast OVC019 13 9 77% 76.4 0.0
01 16:56 NW 24 16.09 Overcast BKN017 OVC022 13 10 82% 76.4 0.0
01 15:51 N 20 16.09 Overcast OVC021 14 9 72% 76.45 0.0
01 15:15 N 20 16.09 Overcast OVC023 14 10 77% 76.48 0.0
01 12:56 NW 19 16.09 Overcast OVC023 14 9 72% 76.48 0.0
01 11:56 N 20 16.09 Overcast OVC021 13 9 77% 76.5 0.0
01 10:56 NW 15 16.09 Overcast OVC021 13 9 77% 76.53 0.0
01 09:56 NW 17 16.09 Overcast OVC019 13 9 77% 76.5 0.0
01 08:56 N 13 16.09 Overcast OVC019 12 9 82% 76.48 0.0
01 07:56 N 11 16.09 Overcast OVC017 12 10 88% 76.45 0.0
01 06:56 N 13 16.09 Overcast BKN015 OVC020 11 10 94% 76.43 0.0
30 13:56 N 22 16.09 Overcast OVC016 14 11 82% 76.48 0.0
30 11:56 NW 19 16.09 Overcast OVC012 13 11 88% 76.5 0.0
Date Time (pdt) Wind (kph) Vis. (km) Weather Sky Cond. Air Dwpt Max. Min. Relative Humidity Wind Chill (°C) Heat Index (°C) altimeter (cm) sea level (mb) 1 hr 3 hr 6 hr
6 hour
Temperature (ºC) Pressure Precipitation (cm)